sensor_id;sensor_type;location;lat;lon;timestamp;temperature;humidity
4813;DHT22;2420;51.202;8.698;2023-03-13T00:00:31;5.30;1.00
4813;DHT22;2420;51.202;8.698;2023-03-13T00:02:57;5.10;1.00
4813;DHT22;2420;51.202;8.698;2023-03-13T00:05:22;5.30;1.00
4813;DHT22;2420;51.202;8.698;2023-03-13T00:07:48;5.00;1.00
4813;DHT22;2420;51.202;8.698;2023-03-13T00:10:13;5.40;1.00
4813;DHT22;2420;51.202;8.698;2023-03-13T00:12:39;5.70;1.00
4813;DHT22;2420;51.202;8.698;2023-03-13T00:15:05;5.60;1.00
4813;DHT22;2420;51.202;8.698;2023-03-13T00:17:30;5.70;1.00
4813;DHT22;2420;51.202;8.698;2023-03-13T00:19:57;5.90;1.00
4813;DHT22;2420;51.202;8.698;2023-03-13T00:22:23;6.10;1.00
4813;DHT22;2420;51.202;8.698;2023-03-13T00:24:48;5.60;1.00
4813;DHT22;2420;51.202;8.698;2023-03-13T00:27:14;6.00;1.00
4813;DHT22;2420;51.202;8.698;2023-03-13T00:29:40;6.00;1.00
4813;DHT22;2420;51.202;8.698;2023-03-13T00:32:05;6.20;1.00
4813;DHT22;2420;51.202;8.698;2023-03-13T00:34:31;6.10;1.00
4813;DHT22;2420;51.202;8.698;2023-03-13T00:36:56;6.00;1.00
4813;DHT22;2420;51.202;8.698;2023-03-13T00:39:22;6.10;1.00
4813;DHT22;2420;51.202;8.698;2023-03-13T00:41:47;6.10;1.00
4813;DHT22;2420;51.202;8.698;2023-03-13T00:44:13;6.10;1.00
4813;DHT22;2420;51.202;8.698;2023-03-13T00:46:39;6.20;1.00
4813;DHT22;2420;51.202;8.698;2023-03-13T00:49:05;6.10;1.00
4813;DHT22;2420;51.202;8.698;2023-03-13T00:51:30;6.00;1.00
4813;DHT22;2420;51.202;8.698;2023-03-13T00:53:58;6.10;1.00
4813;DHT22;2420;51.202;8.698;2023-03-13T00:56:27;6.30;1.00
4813;DHT22;2420;51.202;8.698;2023-03-13T00:58:52;6.00;1.00
4813;DHT22;2420;51.202;8.698;2023-03-13T01:01:24;6.20;1.00
4813;DHT22;2420;51.202;8.698;2023-03-13T01:03:57;5.90;1.00
4813;DHT22;2420;51.202;8.698;2023-03-13T01:06:27;6.00;1.00
4813;DHT22;2420;51.202;8.698;2023-03-13T01:08:53;6.00;1.00
4813;DHT22;2420;51.202;8.698;2023-03-13T01:11:21;6.10;1.00
4813;DHT22;2420;51.202;8.698;2023-03-13T01:13:47;6.20;1.00
4813;DHT22;2420;51.202;8.698;2023-03-13T01:16:18;6.10;1.00
4813;DHT22;2420;51.202;8.698;2023-03-13T01:18:47;6.20;1.00
4813;DHT22;2420;51.202;8.698;2023-03-13T01:21:14;6.20;1.00
4813;DHT22;2420;51.202;8.698;2023-03-13T01:23:39;6.20;1.00
4813;DHT22;2420;51.202;8.698;2023-03-13T01:26:06;6.20;1.00
4813;DHT22;2420;51.202;8.698;2023-03-13T01:28:33;6.20;1.00
4813;DHT22;2420;51.202;8.698;2023-03-13T01:30:59;6.30;1.00
4813;DHT22;2420;51.202;8.698;2023-03-13T01:33:25;6.10;1.00
4813;DHT22;2420;51.202;8.698;2023-03-13T01:35:51;5.90;1.00
4813;DHT22;2420;51.202;8.698;2023-03-13T01:38:17;6.10;1.00
4813;DHT22;2420;51.202;8.698;2023-03-13T01:40:45;6.00;1.00
4813;DHT22;2420;51.202;8.698;2023-03-13T01:43:21;6.10;1.00
4813;DHT22;2420;51.202;8.698;2023-03-13T01:45:53;5.90;1.00
4813;DHT22;2420;51.202;8.698;2023-03-13T01:48:46;5.70;1.00
4813;DHT22;2420;51.202;8.698;2023-03-13T01:53:57;6.10;1.00
4813;DHT22;2420;51.202;8.698;2023-03-13T01:56:30;5.80;1.00
4813;DHT22;2420;51.202;8.698;2023-03-13T01:58:59;6.00;1.00
4813;DHT22;2420;51.202;8.698;2023-03-13T02:01:24;6.00;1.00
4813;DHT22;2420;51.202;8.698;2023-03-13T02:03:51;6.20;1.00
4813;DHT22;2420;51.202;8.698;2023-03-13T02:06:17;6.10;1.00
4813;DHT22;2420;51.202;8.698;2023-03-13T02:08:49;6.10;1.00
4813;DHT22;2420;51.202;8.698;2023-03-13T02:11:28;6.30;1.00
4813;DHT22;2420;51.202;8.698;2023-03-13T02:13:58;6.20;1.00
4813;DHT22;2420;51.202;8.698;2023-03-13T02:16:25;6.30;1.00
4813;DHT22;2420;51.202;8.698;2023-03-13T02:18:51;6.30;1.00
4813;DHT22;2420;51.202;8.698;2023-03-13T02:21:38;6.20;1.00
4813;DHT22;2420;51.202;8.698;2023-03-13T02:26:40;6.30;1.00
4813;DHT22;2420;51.202;8.698;2023-03-13T02:29:06;6.40;1.00
4813;DHT22;2420;51.202;8.698;2023-03-13T02:31:32;6.40;1.00
4813;DHT22;2420;51.202;8.698;2023-03-13T02:33:59;6.40;1.00
4813;DHT22;2420;51.202;8.698;2023-03-13T02:36:27;6.50;1.00
4813;DHT22;2420;51.202;8.698;2023-03-13T02:38:58;6.30;1.00
4813;DHT22;2420;51.202;8.698;2023-03-13T02:41:26;5.90;1.00
4813;DHT22;2420;51.202;8.698;2023-03-13T02:43:52;6.60;1.00
4813;DHT22;2420;51.202;8.698;2023-03-13T02:46:19;6.30;1.00
4813;DHT22;2420;51.202;8.698;2023-03-13T02:48:50;6.30;1.00
4813;DHT22;2420;51.202;8.698;2023-03-13T02:51:17;6.30;1.00
4813;DHT22;2420;51.202;8.698;2023-03-13T02:53:46;6.50;1.00
4813;DHT22;2420;51.202;8.698;2023-03-13T02:56:14;6.40;1.00
4813;DHT22;2420;51.202;8.698;2023-03-13T02:58:42;6.40;1.00
4813;DHT22;2420;51.202;8.698;2023-03-13T03:01:08;6.30;1.00
4813;DHT22;2420;51.202;8.698;2023-03-13T03:03:34;6.40;1.00
4813;DHT22;2420;51.202;8.698;2023-03-13T03:06:02;6.30;1.00
4813;DHT22;2420;51.202;8.698;2023-03-13T03:08:28;6.50;1.00
4813;DHT22;2420;51.202;8.698;2023-03-13T03:10:53;6.30;1.00
4813;DHT22;2420;51.202;8.698;2023-03-13T03:13:19;6.50;1.00
4813;DHT22;2420;51.202;8.698;2023-03-13T03:15:45;6.30;1.00
4813;DHT22;2420;51.202;8.698;2023-03-13T03:18:10;6.20;1.00
4813;DHT22;2420;51.202;8.698;2023-03-13T03:20:36;6.40;1.00
4813;DHT22;2420;51.202;8.698;2023-03-13T03:23:01;6.30;1.00
4813;DHT22;2420;51.202;8.698;2023-03-13T03:25:27;6.10;1.00
4813;DHT22;2420;51.202;8.698;2023-03-13T03:27:52;6.00;1.00
4813;DHT22;2420;51.202;8.698;2023-03-13T03:30:18;6.10;1.00
4813;DHT22;2420;51.202;8.698;2023-03-13T03:32:43;6.00;1.00
4813;DHT22;2420;51.202;8.698;2023-03-13T03:35:09;6.00;1.00
4813;DHT22;2420;51.202;8.698;2023-03-13T03:37:35;6.00;1.00
4813;DHT22;2420;51.202;8.698;2023-03-13T03:40:00;5.90;1.00
4813;DHT22;2420;51.202;8.698;2023-03-13T03:42:26;6.10;1.00
4813;DHT22;2420;51.202;8.698;2023-03-13T03:44:51;5.90;1.00
4813;DHT22;2420;51.202;8.698;2023-03-13T03:47:17;6.20;1.00
4813;DHT22;2420;51.202;8.698;2023-03-13T03:49:42;6.00;1.00
4813;DHT22;2420;51.202;8.698;2023-03-13T03:52:08;6.10;1.00
4813;DHT22;2420;51.202;8.698;2023-03-13T03:54:33;6.10;1.00
4813;DHT22;2420;51.202;8.698;2023-03-13T03:56:59;6.10;1.00
4813;DHT22;2420;51.202;8.698;2023-03-13T03:59:25;6.00;1.00
4813;DHT22;2420;51.202;8.698;2023-03-13T04:01:50;6.00;1.00
4813;DHT22;2420;51.202;8.698;2023-03-13T04:04:16;6.10;1.00
4813;DHT22;2420;51.202;8.698;2023-03-13T04:06:41;6.10;1.00
4813;DHT22;2420;51.202;8.698;2023-03-13T04:09:07;6.10;1.00
4813;DHT22;2420;51.202;8.698;2023-03-13T04:11:32;6.10;1.00
4813;DHT22;2420;51.202;8.698;2023-03-13T04:13:58;6.00;1.00
4813;DHT22;2420;51.202;8.698;2023-03-13T04:16:23;6.00;1.00
4813;DHT22;2420;51.202;8.698;2023-03-13T04:18:49;6.30;1.00
4813;DHT22;2420;51.202;8.698;2023-03-13T04:21:14;6.20;1.00
4813;DHT22;2420;51.202;8.698;2023-03-13T04:23:40;6.00;1.00
4813;DHT22;2420;51.202;8.698;2023-03-13T04:26:05;5.90;1.00
4813;DHT22;2420;51.202;8.698;2023-03-13T04:28:31;6.10;1.00
4813;DHT22;2420;51.202;8.698;2023-03-13T04:30:56;6.30;1.00
4813;DHT22;2420;51.202;8.698;2023-03-13T04:33:23;6.00;1.00
4813;DHT22;2420;51.202;8.698;2023-03-13T04:35:49;6.20;1.00
4813;DHT22;2420;51.202;8.698;2023-03-13T04:38:14;6.10;1.00
4813;DHT22;2420;51.202;8.698;2023-03-13T04:40:40;6.40;1.00
4813;DHT22;2420;51.202;8.698;2023-03-13T04:43:07;6.20;1.00
4813;DHT22;2420;51.202;8.698;2023-03-13T04:45:33;6.40;1.00
4813;DHT22;2420;51.202;8.698;2023-03-13T04:47:58;6.30;1.00
4813;DHT22;2420;51.202;8.698;2023-03-13T04:50:24;6.30;1.00
4813;DHT22;2420;51.202;8.698;2023-03-13T04:52:50;6.50;1.00
4813;DHT22;2420;51.202;8.698;2023-03-13T04:55:16;6.40;1.00
4813;DHT22;2420;51.202;8.698;2023-03-13T04:57:41;6.60;1.00
4813;DHT22;2420;51.202;8.698;2023-03-13T05:00:07;6.40;1.00
4813;DHT22;2420;51.202;8.698;2023-03-13T05:02:34;6.50;1.00
4813;DHT22;2420;51.202;8.698;2023-03-13T05:05:00;6.50;1.00
4813;DHT22;2420;51.202;8.698;2023-03-13T05:07:25;6.60;1.00
4813;DHT22;2420;51.202;8.698;2023-03-13T05:09:51;6.60;1.00
4813;DHT22;2420;51.202;8.698;2023-03-13T05:12:16;6.70;1.00
4813;DHT22;2420;51.202;8.698;2023-03-13T05:14:42;6.70;1.00
4813;DHT22;2420;51.202;8.698;2023-03-13T05:17:07;6.70;1.00
4813;DHT22;2420;51.202;8.698;2023-03-13T05:19:35;6.70;1.00
4813;DHT22;2420;51.202;8.698;2023-03-13T05:22:00;6.70;1.00
4813;DHT22;2420;51.202;8.698;2023-03-13T05:24:26;6.70;1.00
4813;DHT22;2420;51.202;8.698;2023-03-13T05:26:52;6.70;1.00
4813;DHT22;2420;51.202;8.698;2023-03-13T05:29:17;6.80;1.00
4813;DHT22;2420;51.202;8.698;2023-03-13T05:31:43;6.80;1.00
4813;DHT22;2420;51.202;8.698;2023-03-13T05:34:08;6.90;1.00
4813;DHT22;2420;51.202;8.698;2023-03-13T05:36:34;6.90;1.00
4813;DHT22;2420;51.202;8.698;2023-03-13T05:39:00;6.90;1.00
4813;DHT22;2420;51.202;8.698;2023-03-13T05:41:25;6.90;1.00
4813;DHT22;2420;51.202;8.698;2023-03-13T05:43:50;6.90;1.00
4813;DHT22;2420;51.202;8.698;2023-03-13T05:46:16;7.00;1.00
4813;DHT22;2420;51.202;8.698;2023-03-13T05:48:42;7.00;1.00
4813;DHT22;2420;51.202;8.698;2023-03-13T05:51:09;7.00;1.00
4813;DHT22;2420;51.202;8.698;2023-03-13T05:53:35;7.00;1.00
4813;DHT22;2420;51.202;8.698;2023-03-13T05:56:00;7.00;1.00
4813;DHT22;2420;51.202;8.698;2023-03-13T05:58:26;7.00;1.00
4813;DHT22;2420;51.202;8.698;2023-03-13T06:00:52;7.10;1.00
4813;DHT22;2420;51.202;8.698;2023-03-13T06:03:17;7.10;1.00
4813;DHT22;2420;51.202;8.698;2023-03-13T06:05:43;7.20;1.00
4813;DHT22;2420;51.202;8.698;2023-03-13T06:08:08;7.20;1.00
4813;DHT22;2420;51.202;8.698;2023-03-13T06:10:34;7.30;1.00
4813;DHT22;2420;51.202;8.698;2023-03-13T06:12:59;7.30;1.00
4813;DHT22;2420;51.202;8.698;2023-03-13T06:15:25;7.40;1.00
4813;DHT22;2420;51.202;8.698;2023-03-13T06:17:50;7.40;1.00
4813;DHT22;2420;51.202;8.698;2023-03-13T06:20:16;7.40;1.00
4813;DHT22;2420;51.202;8.698;2023-03-13T06:22:42;7.50;1.00
4813;DHT22;2420;51.202;8.698;2023-03-13T06:25:08;7.50;1.00
4813;DHT22;2420;51.202;8.698;2023-03-13T06:27:33;7.50;1.00
4813;DHT22;2420;51.202;8.698;2023-03-13T06:29:59;7.50;1.00
4813;DHT22;2420;51.202;8.698;2023-03-13T06:32:26;7.60;1.00
4813;DHT22;2420;51.202;8.698;2023-03-13T06:34:52;7.60;1.00
4813;DHT22;2420;51.202;8.698;2023-03-13T06:37:18;7.70;1.00
4813;DHT22;2420;51.202;8.698;2023-03-13T06:39:43;7.70;1.00
4813;DHT22;2420;51.202;8.698;2023-03-13T06:42:09;7.70;1.00
4813;DHT22;2420;51.202;8.698;2023-03-13T06:44:34;7.80;1.00
4813;DHT22;2420;51.202;8.698;2023-03-13T06:47:00;7.80;1.00
4813;DHT22;2420;51.202;8.698;2023-03-13T06:49:26;7.80;1.00
4813;DHT22;2420;51.202;8.698;2023-03-13T06:51:51;7.80;1.00
4813;DHT22;2420;51.202;8.698;2023-03-13T06:54:17;7.80;1.00
4813;DHT22;2420;51.202;8.698;2023-03-13T06:56:42;7.90;1.00
4813;DHT22;2420;51.202;8.698;2023-03-13T06:59:08;7.90;1.00
4813;DHT22;2420;51.202;8.698;2023-03-13T07:01:34;7.90;1.00
4813;DHT22;2420;51.202;8.698;2023-03-13T07:04:00;7.90;1.00
4813;DHT22;2420;51.202;8.698;2023-03-13T07:06:25;7.90;1.00
4813;DHT22;2420;51.202;8.698;2023-03-13T07:08:51;7.90;1.00
4813;DHT22;2420;51.202;8.698;2023-03-13T07:11:17;7.90;1.00
4813;DHT22;2420;51.202;8.698;2023-03-13T07:13:42;8.00;1.00
4813;DHT22;2420;51.202;8.698;2023-03-13T07:16:10;8.00;1.00
4813;DHT22;2420;51.202;8.698;2023-03-13T07:18:37;8.10;1.00
4813;DHT22;2420;51.202;8.698;2023-03-13T07:21:03;8.10;1.00
4813;DHT22;2420;51.202;8.698;2023-03-13T07:23:33;8.10;1.00
4813;DHT22;2420;51.202;8.698;2023-03-13T07:26:01;8.10;1.00
4813;DHT22;2420;51.202;8.698;2023-03-13T07:28:29;8.20;1.00
4813;DHT22;2420;51.202;8.698;2023-03-13T07:31:03;8.30;1.00
4813;DHT22;2420;51.202;8.698;2023-03-13T07:33:29;8.40;1.00
4813;DHT22;2420;51.202;8.698;2023-03-13T07:35:54;8.70;1.00
4813;DHT22;2420;51.202;8.698;2023-03-13T07:38:20;8.80;1.00
4813;DHT22;2420;51.202;8.698;2023-03-13T07:40:54;8.90;1.00
4813;DHT22;2420;51.202;8.698;2023-03-13T07:43:20;9.00;1.00
4813;DHT22;2420;51.202;8.698;2023-03-13T07:48:16;9.20;1.00
4813;DHT22;2420;51.202;8.698;2023-03-13T07:50:41;9.30;1.00
4813;DHT22;2420;51.202;8.698;2023-03-13T07:53:07;9.40;1.00
4813;DHT22;2420;51.202;8.698;2023-03-13T07:55:33;9.50;1.00
4813;DHT22;2420;51.202;8.698;2023-03-13T07:57:58;9.50;1.00
4813;DHT22;2420;51.202;8.698;2023-03-13T08:00:24;9.50;1.00
4813;DHT22;2420;51.202;8.698;2023-03-13T08:02:49;9.60;1.00
4813;DHT22;2420;51.202;8.698;2023-03-13T08:05:15;9.60;1.00
4813;DHT22;2420;51.202;8.698;2023-03-13T08:07:43;9.60;1.00
4813;DHT22;2420;51.202;8.698;2023-03-13T08:10:09;9.60;1.00
4813;DHT22;2420;51.202;8.698;2023-03-13T08:12:35;9.60;1.00
4813;DHT22;2420;51.202;8.698;2023-03-13T08:15:00;9.70;1.00
4813;DHT22;2420;51.202;8.698;2023-03-13T08:17:28;9.70;1.00
4813;DHT22;2420;51.202;8.698;2023-03-13T08:19:54;9.70;1.00
4813;DHT22;2420;51.202;8.698;2023-03-13T08:22:19;9.80;1.00
4813;DHT22;2420;51.202;8.698;2023-03-13T08:24:45;9.90;1.00
4813;DHT22;2420;51.202;8.698;2023-03-13T08:27:10;10.00;1.00
4813;DHT22;2420;51.202;8.698;2023-03-13T08:29:36;10.10;1.00
4813;DHT22;2420;51.202;8.698;2023-03-13T08:32:01;10.20;1.00
4813;DHT22;2420;51.202;8.698;2023-03-13T08:34:27;10.30;1.00
4813;DHT22;2420;51.202;8.698;2023-03-13T08:36:53;10.30;1.00
4813;DHT22;2420;51.202;8.698;2023-03-13T08:39:19;10.40;1.00
4813;DHT22;2420;51.202;8.698;2023-03-13T08:41:44;10.40;1.00
4813;DHT22;2420;51.202;8.698;2023-03-13T08:44:12;10.40;1.00
4813;DHT22;2420;51.202;8.698;2023-03-13T08:46:39;10.40;1.00
4813;DHT22;2420;51.202;8.698;2023-03-13T08:49:05;10.50;1.00
4813;DHT22;2420;51.202;8.698;2023-03-13T08:51:32;10.50;1.00
4813;DHT22;2420;51.202;8.698;2023-03-13T08:53:58;10.60;1.00
4813;DHT22;2420;51.202;8.698;2023-03-13T08:56:26;10.70;1.00
4813;DHT22;2420;51.202;8.698;2023-03-13T08:58:57;10.70;1.00
4813;DHT22;2420;51.202;8.698;2023-03-13T09:01:25;10.80;1.00
4813;DHT22;2420;51.202;8.698;2023-03-13T09:03:51;10.80;1.00
4813;DHT22;2420;51.202;8.698;2023-03-13T09:06:17;10.80;1.00
4813;DHT22;2420;51.202;8.698;2023-03-13T09:08:43;10.80;1.00
4813;DHT22;2420;51.202;8.698;2023-03-13T09:11:15;10.90;1.00
4813;DHT22;2420;51.202;8.698;2023-03-13T09:13:43;11.00;1.00
4813;DHT22;2420;51.202;8.698;2023-03-13T09:16:11;10.90;1.00
4813;DHT22;2420;51.202;8.698;2023-03-13T09:18:38;11.00;1.00
4813;DHT22;2420;51.202;8.698;2023-03-13T09:21:08;11.00;1.00
4813;DHT22;2420;51.202;8.698;2023-03-13T09:23:34;11.00;1.00
4813;DHT22;2420;51.202;8.698;2023-03-13T09:25:59;11.00;1.00
4813;DHT22;2420;51.202;8.698;2023-03-13T09:28:25;11.00;1.00
4813;DHT22;2420;51.202;8.698;2023-03-13T09:30:51;11.00;1.00
4813;DHT22;2420;51.202;8.698;2023-03-13T09:33:18;11.00;1.00
4813;DHT22;2420;51.202;8.698;2023-03-13T09:35:44;11.00;1.00
4813;DHT22;2420;51.202;8.698;2023-03-13T09:38:19;10.90;1.00
4813;DHT22;2420;51.202;8.698;2023-03-13T09:40:50;10.90;1.00
4813;DHT22;2420;51.202;8.698;2023-03-13T09:46:26;11.00;1.00
4813;DHT22;2420;51.202;8.698;2023-03-13T09:48:56;10.90;1.00
4813;DHT22;2420;51.202;8.698;2023-03-13T09:56:18;11.10;1.00
4813;DHT22;2420;51.202;8.698;2023-03-13T09:58:54;11.20;1.00
4813;DHT22;2420;51.202;8.698;2023-03-13T10:01:28;11.30;1.00
4813;DHT22;2420;51.202;8.698;2023-03-13T10:04:03;11.40;1.00
4813;DHT22;2420;51.202;8.698;2023-03-13T10:06:34;11.40;1.00
4813;DHT22;2420;51.202;8.698;2023-03-13T10:09:04;11.40;1.00
4813;DHT22;2420;51.202;8.698;2023-03-13T10:11:41;11.40;1.00
4813;DHT22;2420;51.202;8.698;2023-03-13T10:14:26;11.60;1.00
4813;DHT22;2420;51.202;8.698;2023-03-13T10:16:59;11.90;1.00
4813;DHT22;2420;51.202;8.698;2023-03-13T10:19:31;12.00;1.00
4813;DHT22;2420;51.202;8.698;2023-03-13T10:21:58;12.00;1.00
4813;DHT22;2420;51.202;8.698;2023-03-13T10:24:33;12.00;1.00
4813;DHT22;2420;51.202;8.698;2023-03-13T10:27:00;11.90;1.00
4813;DHT22;2420;51.202;8.698;2023-03-13T10:29:28;11.90;1.00
4813;DHT22;2420;51.202;8.698;2023-03-13T10:31:58;11.90;1.00
4813;DHT22;2420;51.202;8.698;2023-03-13T10:34:26;11.90;1.00
4813;DHT22;2420;51.202;8.698;2023-03-13T10:36:59;11.90;1.00
4813;DHT22;2420;51.202;8.698;2023-03-13T10:39:28;11.90;1.00
4813;DHT22;2420;51.202;8.698;2023-03-13T10:42:07;12.00;1.00
4813;DHT22;2420;51.202;8.698;2023-03-13T10:44:34;12.10;1.00
4813;DHT22;2420;51.202;8.698;2023-03-13T10:47:01;12.20;1.00
4813;DHT22;2420;51.202;8.698;2023-03-13T10:49:28;12.20;1.00
4813;DHT22;2420;51.202;8.698;2023-03-13T10:51:59;12.30;1.00
4813;DHT22;2420;51.202;8.698;2023-03-13T10:54:28;12.30;1.00
4813;DHT22;2420;51.202;8.698;2023-03-13T10:59:49;12.40;1.00
4813;DHT22;2420;51.202;8.698;2023-03-13T11:02:36;12.40;1.00
4813;DHT22;2420;51.202;8.698;2023-03-13T11:07:49;12.30;1.00
4813;DHT22;2420;51.202;8.698;2023-03-13T11:10:28;12.30;1.00
4813;DHT22;2420;51.202;8.698;2023-03-13T11:12:56;12.30;1.00
4813;DHT22;2420;51.202;8.698;2023-03-13T11:15:42;12.40;1.00
4813;DHT22;2420;51.202;8.698;2023-03-13T11:20:47;12.50;1.00
4813;DHT22;2420;51.202;8.698;2023-03-13T11:23:28;12.50;1.00
4813;DHT22;2420;51.202;8.698;2023-03-13T11:31:46;12.50;1.00
4813;DHT22;2420;51.202;8.698;2023-03-13T11:34:27;12.50;1.00
4813;DHT22;2420;51.202;8.698;2023-03-13T11:37:08;12.50;1.00
4813;DHT22;2420;51.202;8.698;2023-03-13T11:40:10;12.40;1.00
4813;DHT22;2420;51.202;8.698;2023-03-13T11:46:29;12.40;1.00
4813;DHT22;2420;51.202;8.698;2023-03-13T11:51:24;12.30;1.00
4813;DHT22;2420;51.202;8.698;2023-03-13T11:54:19;12.30;1.00
4813;DHT22;2420;51.202;8.698;2023-03-13T11:56:55;12.30;1.00
4813;DHT22;2420;51.202;8.698;2023-03-13T11:59:27;12.30;1.00
4813;DHT22;2420;51.202;8.698;2023-03-13T12:02:01;12.20;1.00
4813;DHT22;2420;51.202;8.698;2023-03-13T12:04:34;12.20;1.00
4813;DHT22;2420;51.202;8.698;2023-03-13T12:07:18;12.10;1.00
4813;DHT22;2420;51.202;8.698;2023-03-13T12:09:52;12.00;1.00
4813;DHT22;2420;51.202;8.698;2023-03-13T12:12:43;11.90;1.00
4813;DHT22;2420;51.202;8.698;2023-03-13T12:15:25;11.90;1.00
4813;DHT22;2420;51.202;8.698;2023-03-13T12:17:57;11.90;1.00
4813;DHT22;2420;51.202;8.698;2023-03-13T12:23:23;11.90;1.00
4813;DHT22;2420;51.202;8.698;2023-03-13T12:31:22;11.90;1.00
4813;DHT22;2420;51.202;8.698;2023-03-13T12:33:59;11.90;1.00
4813;DHT22;2420;51.202;8.698;2023-03-13T12:41:44;11.90;1.00
4813;DHT22;2420;51.202;8.698;2023-03-13T12:44:18;11.90;1.00
4813;DHT22;2420;51.202;8.698;2023-03-13T12:47:55;12.00;1.00
4813;DHT22;2420;51.202;8.698;2023-03-13T12:52:52;12.00;1.00
4813;DHT22;2420;51.202;8.698;2023-03-13T12:58:20;12.00;1.00
4813;DHT22;2420;51.202;8.698;2023-03-13T13:00:49;12.20;1.00
4813;DHT22;2420;51.202;8.698;2023-03-13T13:03:34;12.30;1.00
4813;DHT22;2420;51.202;8.698;2023-03-13T13:06:08;12.40;1.00
4813;DHT22;2420;51.202;8.698;2023-03-13T13:09:00;12.40;1.00
4813;DHT22;2420;51.202;8.698;2023-03-13T13:16:47;12.60;1.00
4813;DHT22;2420;51.202;8.698;2023-03-13T13:25:00;12.50;1.00
4813;DHT22;2420;51.202;8.698;2023-03-13T13:29:58;12.60;1.00
4813;DHT22;2420;51.202;8.698;2023-03-13T13:35:01;12.60;1.00
4813;DHT22;2420;51.202;8.698;2023-03-13T13:37:27;12.70;1.00
4813;DHT22;2420;51.202;8.698;2023-03-13T13:39:54;12.70;1.00
4813;DHT22;2420;51.202;8.698;2023-03-13T13:47:47;12.80;1.00
4813;DHT22;2420;51.202;8.698;2023-03-13T13:50:20;12.80;1.00
4813;DHT22;2420;51.202;8.698;2023-03-13T13:52:47;12.80;1.00
4813;DHT22;2420;51.202;8.698;2023-03-13T13:55:47;12.70;1.00
4813;DHT22;2420;51.202;8.698;2023-03-13T13:58:22;12.70;1.00
4813;DHT22;2420;51.202;8.698;2023-03-13T14:00:58;12.70;1.00
4813;DHT22;2420;51.202;8.698;2023-03-13T14:03:30;12.70;1.00
4813;DHT22;2420;51.202;8.698;2023-03-13T14:06:17;12.70;1.00
4813;DHT22;2420;51.202;8.698;2023-03-13T14:08:45;12.80;1.00
4813;DHT22;2420;51.202;8.698;2023-03-13T14:11:23;12.80;1.00
4813;DHT22;2420;51.202;8.698;2023-03-13T14:14:16;12.70;1.00
4813;DHT22;2420;51.202;8.698;2023-03-13T14:16:46;12.70;1.00
4813;DHT22;2420;51.202;8.698;2023-03-13T14:19:40;12.70;1.00
4813;DHT22;2420;51.202;8.698;2023-03-13T14:22:09;12.60;1.00
4813;DHT22;2420;51.202;8.698;2023-03-13T14:24:35;12.60;1.00
4813;DHT22;2420;51.202;8.698;2023-03-13T14:27:02;12.60;1.00
4813;DHT22;2420;51.202;8.698;2023-03-13T14:29:38;12.50;1.00
4813;DHT22;2420;51.202;8.698;2023-03-13T14:32:04;12.50;1.00
4813;DHT22;2420;51.202;8.698;2023-03-13T14:34:30;12.50;1.00
4813;DHT22;2420;51.202;8.698;2023-03-13T14:36:58;12.50;1.00
4813;DHT22;2420;51.202;8.698;2023-03-13T14:42:04;12.40;1.00
4813;DHT22;2420;51.202;8.698;2023-03-13T14:44:32;12.40;1.00
4813;DHT22;2420;51.202;8.698;2023-03-13T14:47:27;12.40;1.00
4813;DHT22;2420;51.202;8.698;2023-03-13T14:49:56;12.50;1.00
4813;DHT22;2420;51.202;8.698;2023-03-13T14:52:24;12.50;1.00
4813;DHT22;2420;51.202;8.698;2023-03-13T14:54:59;12.40;1.00
4813;DHT22;2420;51.202;8.698;2023-03-13T14:57:29;12.30;1.00
4813;DHT22;2420;51.202;8.698;2023-03-13T15:00:35;12.20;1.00
4813;DHT22;2420;51.202;8.698;2023-03-13T15:08:17;12.20;1.00
4813;DHT22;2420;51.202;8.698;2023-03-13T15:10:44;12.20;1.00
4813;DHT22;2420;51.202;8.698;2023-03-13T15:13:22;12.20;1.00
4813;DHT22;2420;51.202;8.698;2023-03-13T15:15:50;12.10;1.00
4813;DHT22;2420;51.202;8.698;2023-03-13T15:18:27;12.20;1.00
4813;DHT22;2420;51.202;8.698;2023-03-13T15:21:19;12.00;1.00
4813;DHT22;2420;51.202;8.698;2023-03-13T15:26:17;11.90;1.00
4813;DHT22;2420;51.202;8.698;2023-03-13T15:28:43;11.90;1.00
4813;DHT22;2420;51.202;8.698;2023-03-13T15:31:11;12.00;1.00
4813;DHT22;2420;51.202;8.698;2023-03-13T15:33:37;12.00;1.00
4813;DHT22;2420;51.202;8.698;2023-03-13T15:36:03;12.00;1.00
4813;DHT22;2420;51.202;8.698;2023-03-13T15:38:28;11.90;1.00
4813;DHT22;2420;51.202;8.698;2023-03-13T15:40:54;11.90;1.00
4813;DHT22;2420;51.202;8.698;2023-03-13T15:43:20;11.90;1.00
4813;DHT22;2420;51.202;8.698;2023-03-13T15:45:47;11.80;1.00
4813;DHT22;2420;51.202;8.698;2023-03-13T15:50:42;11.90;1.00
4813;DHT22;2420;51.202;8.698;2023-03-13T15:53:23;11.80;1.00
4813;DHT22;2420;51.202;8.698;2023-03-13T15:55:50;11.80;1.00
4813;DHT22;2420;51.202;8.698;2023-03-13T15:58:16;11.80;1.00
4813;DHT22;2420;51.202;8.698;2023-03-13T16:00:42;11.70;1.00
4813;DHT22;2420;51.202;8.698;2023-03-13T16:03:16;11.70;1.00
4813;DHT22;2420;51.202;8.698;2023-03-13T16:05:42;11.70;1.00
4813;DHT22;2420;51.202;8.698;2023-03-13T16:08:16;11.70;1.00
4813;DHT22;2420;51.202;8.698;2023-03-13T16:10:43;11.70;1.00
4813;DHT22;2420;51.202;8.698;2023-03-13T16:13:08;11.70;1.00
4813;DHT22;2420;51.202;8.698;2023-03-13T16:15:35;11.70;1.00
4813;DHT22;2420;51.202;8.698;2023-03-13T16:18:01;11.70;1.00
4813;DHT22;2420;51.202;8.698;2023-03-13T16:20:27;11.70;1.00
4813;DHT22;2420;51.202;8.698;2023-03-13T16:22:54;11.70;1.00
4813;DHT22;2420;51.202;8.698;2023-03-13T16:25:20;11.70;1.00
4813;DHT22;2420;51.202;8.698;2023-03-13T16:27:46;11.70;1.00
4813;DHT22;2420;51.202;8.698;2023-03-13T16:30:26;11.70;1.00
4813;DHT22;2420;51.202;8.698;2023-03-13T16:32:51;11.60;1.00
4813;DHT22;2420;51.202;8.698;2023-03-13T16:35:17;11.70;1.00
4813;DHT22;2420;51.202;8.698;2023-03-13T16:37:43;11.60;1.00
4813;DHT22;2420;51.202;8.698;2023-03-13T16:40:13;11.60;1.00
4813;DHT22;2420;51.202;8.698;2023-03-13T16:42:39;11.60;1.00
4813;DHT22;2420;51.202;8.698;2023-03-13T16:45:06;11.50;1.00
4813;DHT22;2420;51.202;8.698;2023-03-13T16:47:31;11.50;1.00
4813;DHT22;2420;51.202;8.698;2023-03-13T16:49:57;11.50;1.00
4813;DHT22;2420;51.202;8.698;2023-03-13T16:52:22;11.50;1.00
4813;DHT22;2420;51.202;8.698;2023-03-13T16:54:48;11.50;1.00
4813;DHT22;2420;51.202;8.698;2023-03-13T16:57:23;11.50;1.00
4813;DHT22;2420;51.202;8.698;2023-03-13T16:59:50;11.50;1.00
4813;DHT22;2420;51.202;8.698;2023-03-13T17:02:18;11.50;1.00
4813;DHT22;2420;51.202;8.698;2023-03-13T17:04:44;11.50;1.00
4813;DHT22;2420;51.202;8.698;2023-03-13T17:07:24;11.50;1.00
4813;DHT22;2420;51.202;8.698;2023-03-13T17:09:51;11.50;1.00
4813;DHT22;2420;51.202;8.698;2023-03-13T17:12:17;11.50;1.00
4813;DHT22;2420;51.202;8.698;2023-03-13T17:14:43;11.40;1.00
4813;DHT22;2420;51.202;8.698;2023-03-13T17:17:16;11.40;1.00
4813;DHT22;2420;51.202;8.698;2023-03-13T17:19:42;11.30;1.00
4813;DHT22;2420;51.202;8.698;2023-03-13T17:22:13;11.20;1.00
4813;DHT22;2420;51.202;8.698;2023-03-13T17:24:39;11.30;1.00
4813;DHT22;2420;51.202;8.698;2023-03-13T17:27:13;11.30;1.00
4813;DHT22;2420;51.202;8.698;2023-03-13T17:29:39;11.20;1.00
4813;DHT22;2420;51.202;8.698;2023-03-13T17:32:04;11.10;1.00
4813;DHT22;2420;51.202;8.698;2023-03-13T17:34:30;11.10;1.00
4813;DHT22;2420;51.202;8.698;2023-03-13T17:36:56;11.00;1.00
4813;DHT22;2420;51.202;8.698;2023-03-13T17:39:23;11.00;1.00
4813;DHT22;2420;51.202;8.698;2023-03-13T17:41:49;11.00;1.00
4813;DHT22;2420;51.202;8.698;2023-03-13T17:44:15;10.90;1.00
4813;DHT22;2420;51.202;8.698;2023-03-13T17:46:45;11.00;1.00
4813;DHT22;2420;51.202;8.698;2023-03-13T17:49:13;11.00;1.00
4813;DHT22;2420;51.202;8.698;2023-03-13T17:51:39;10.90;1.00
4813;DHT22;2420;51.202;8.698;2023-03-13T17:54:09;10.80;1.00
4813;DHT22;2420;51.202;8.698;2023-03-13T17:56:37;10.70;1.00
4813;DHT22;2420;51.202;8.698;2023-03-13T17:59:05;10.70;1.00
4813;DHT22;2420;51.202;8.698;2023-03-13T18:01:33;10.60;1.00
4813;DHT22;2420;51.202;8.698;2023-03-13T18:03:59;10.60;1.00
4813;DHT22;2420;51.202;8.698;2023-03-13T18:06:36;10.70;1.00